Clam Gulch, AK

1:40 PM AKDT on August 27, 2016 (GMT -0800)
mile 16.05 Oilwell Rd. | | Change Station

Elev 1161 ft 60.02 °N, 151.33 °W | Updated 4 minutes ago

Partly Cloudy
Partly Cloudy
64.9 °F
Feels Like 64.9 °F
N
17.0
Wind Variable Wind from NNE

Today
High -- | Low -- °F
--% Chance of Precip.
Yesterday
High -- | Low -- °F
Precip. -- in
Pressure 30.05 in
Visibility 10.0 miles
Clouds Few 8500 ft
Dew Point 48 °F
Humidity 55%
Rainfall 0.00 in
Snow Depth Not available.
6:49 AM 9:22 PM
Waning Crescent, 21% visible
METAR PASX 272136Z AUTO 04007KT 320V080 10SM FEW085 22/09 A3005 RMK AO1
Pressure 30.05 in
Visibility 10.0 miles
Clouds Few 8500 ft
Dew Point 48 °F
Humidity 55%
Rainfall 0.00 in
Snow Depth Not available.
6:49 AM 9:22 PM
Waning Crescent, 21% visible
METAR PASX 272136Z AUTO 04007KT 320V080 10SM FEW085 22/09 A3005 RMK AO1

10-Day Weather Forecast

Almanac

Astronomy

Aug. 27, 2016 Rise Set
Actual Time
Civil Twilight
Nautical Twilight
Astronomical Twilight
Moon
Length of Visible Light
Length of Day
Tomorrow will be .
, % of the Moon is Illuminated

Today's Extremes

State Highs State Lows

Community

WunderPhotos

Upload Photos

1,935,452 photos uploaded!

WunderBlog® & News

Nearby

Air Quality

  Air Quality AQ Index Pollutant
Not available.

Snow Depth

Station Depth Elevation

Earthquake Activity

City Distance Mag. Time & Date
Minimum magnitude displayed is 2.5.

Coastal Water Temperatures

Place Temperature

Stations

Nearby Weather Stations

Station Location Temp. Windchill Dew Point Humidity Wind Precip. Elev Updated Type
                   

Watches & Warnings

There are currently no watches in effect.